Terminal Aerodrome Forecast
Issued by NWS Milwaukee/Sullivan, WI

Home | Current Version | Previous Version | Text Only | Print | Product List | Glossary On
Versions: 1 2 3 4 5 6 7 8 9 10 11 12 13 14 15 16 17 18 19 20 21 22 23 24 25 26 27 28 29 30 31 32 33 34 35 36 37 38 39 40 41 42 43 44 45 46 47 48 49 50
000
FTUS43 KMKX 300054 AAA
TAFMKE
TAF AMD
KMKE 300054Z 3001/3106 21009KT P6SM VCSH SCT050 BKN090
     FM300400 21008KT P6SM -SHRA VCTS SCT035CB OVC060
     FM300600 24008KT P6SM -SHRA OVC060
     FM301100 34007KT 5SM -SHRA BR OVC015
     FM301300 02013KT 5SM -SHRA BR OVC008
     FM301500 02018G27KT 5SM -SHRA BR OVC005
     FM302000 02019G28KT P6SM OVC008
     FM302200 02019G28KT P6SM BKN030
     FM310200 03018G27KT P6SM BKN050=

USA.gov is the U.S. government's official web portal to all federal, state and local government web resources and services.